Time;durP1;ratioP1;P1;durP2;ratioP2;P2;SDS_P1;SDS_P2;PMS_P1;PMS_P2;Temp;Humidity;BMP_temperature;BMP_pressure;BME280_temperature;BME280_humidity;BME280_pressure;Samples;Min_cycle;Max_cycle;Signal;HPM_P1;HPM_P2
2021/11/14 00:01:36;;;;;;;173.18;43.72;;;7.80;99.90;;;;;;5060293;28;20076;-73
2021/11/14 00:04:04;;;;;;;163.55;41.03;;;7.90;99.90;;;;;;5062666;28;20049;-73
2021/11/14 00:06:30;;;;;;;183.60;45.33;;;7.90;99.90;;;;;;5066263;28;20062;-73
2021/11/14 00:08:58;;;;;;;167.93;43.22;;;7.90;99.90;;;;;;5052574;28;20057;-73
2021/11/14 00:11:25;;;;;;;167.35;42.05;;;7.90;99.90;;;;;;5053138;28;20423;-73
2021/11/14 00:13:52;;;;;;;169.52;43.50;;;7.90;99.90;;;;;;5046168;28;20163;-73
2021/11/14 00:16:20;;;;;;;174.00;43.88;;;7.90;99.90;;;;;;5057335;28;20756;-73
2021/11/14 00:18:48;;;;;;;163.00;44.40;;;7.90;99.90;;;;;;5065619;28;20079;-73
2021/11/14 00:21:17;;;;;;;184.38;46.75;;;7.90;99.90;;;;;;5053617;28;20115;-73
2021/11/14 00:23:45;;;;;;;170.98;44.35;;;7.90;99.90;;;;;;5036483;28;20079;-73
2021/11/14 00:26:12;;;;;;;164.63;45.17;;;7.90;99.90;;;;;;5065918;28;20153;-73
2021/11/14 00:28:42;;;;;;;166.55;44.03;;;7.90;99.90;;;;;;5047346;28;20440;-73
2021/11/14 00:31:10;;;;;;;178.00;44.88;;;7.90;99.90;;;;;;5057233;28;20139;-73
2021/11/14 00:33:42;;;;;;;166.00;44.97;;;7.90;99.90;;;;;;5045199;28;20044;-73
2021/11/14 00:36:15;;;;;;;180.82;45.45;;;7.90;99.90;;;;;;5045262;28;20053;-73
2021/11/14 00:38:42;;;;;;;181.63;44.08;;;7.90;99.90;;;;;;5045566;28;20049;-73
2021/11/14 00:41:10;;;;;;;156.55;44.38;;;7.90;99.90;;;;;;5053046;28;20147;-74
2021/11/14 00:43:37;;;;;;;160.32;43.92;;;7.90;99.90;;;;;;5027859;28;20081;-73
2021/11/14 00:46:06;;;;;;;159.43;41.78;;;7.90;99.90;;;;;;5045635;28;20168;-73
2021/11/14 00:48:33;;;;;;;151.15;44.22;;;8.00;99.90;;;;;;5066196;28;20451;-73
2021/11/14 00:51:03;;;;;;;155.15;41.03;;;8.00;99.90;;;;;;5061176;28;20479;-73
2021/11/14 00:53:31;;;;;;;149.27;42.53;;;8.00;99.90;;;;;;5060610;28;20062;-73
2021/11/14 00:55:58;;;;;;;158.50;43.55;;;7.90;99.90;;;;;;5069385;28;20588;-73
2021/11/14 00:58:25;;;;;;;148.75;41.45;;;8.00;99.90;;;;;;5050868;28;20587;-73
2021/11/14 01:00:54;;;;;;;155.10;42.85;;;8.00;99.90;;;;;;5039601;28;20055;-73
2021/11/14 01:03:21;;;;;;;136.77;41.25;;;8.00;99.90;;;;;;5062691;28;20072;-73
2021/11/14 01:05:49;;;;;;;148.70;42.53;;;8.00;99.90;;;;;;5068861;28;20059;-73
2021/11/14 01:08:16;;;;;;;146.55;40.42;;;8.00;99.90;;;;;;5060038;28;20056;-73
2021/11/14 01:10:48;;;;;;;140.25;41.10;;;8.00;99.90;;;;;;5056854;28;20115;-73
2021/11/14 01:13:15;;;;;;;150.55;42.13;;;8.00;99.90;;;;;;5031547;28;20133;-73
2021/11/14 01:15:43;;;;;;;139.50;40.20;;;7.90;99.90;;;;;;5062352;28;20048;-73
2021/11/14 01:18:13;;;;;;;144.15;40.85;;;7.90;99.90;;;;;;5069366;28;20076;-73
2021/11/14 01:20:43;;;;;;;139.05;39.17;;;7.90;99.90;;;;;;5059413;28;20080;-73
2021/11/14 01:23:12;;;;;;;137.20;39.55;;;8.00;99.90;;;;;;5060924;28;20071;-73
2021/11/14 01:25:40;;;;;;;137.50;40.65;;;7.90;99.90;;;;;;5049078;28;20409;-73
2021/11/14 01:28:07;;;;;;;143.13;42.35;;;7.90;99.90;;;;;;5048535;28;20727;-73
2021/11/14 01:30:39;;;;;;;137.13;41.70;;;7.90;99.90;;;;;;5055939;28;20084;-73
2021/11/14 01:33:07;;;;;;;132.05;39.40;;;8.00;99.90;;;;;;5068146;28;20151;-73
2021/11/14 01:35:34;;;;;;;137.32;39.88;;;8.00;99.90;;;;;;5038164;28;20109;-73
2021/11/14 01:38:02;;;;;;;130.27;40.22;;;8.00;99.90;;;;;;5030801;28;20079;-73
2021/11/14 01:40:39;;;;;;;128.18;39.55;;;8.00;99.90;;;;;;5060453;28;20129;-73
2021/11/14 01:43:08;;;;;;;140.90;39.50;;;8.00;99.90;;;;;;5061559;28;20156;-73
2021/11/14 01:45:37;;;;;;;128.63;39.85;;;8.00;99.90;;;;;;5043031;28;20110;-73
2021/11/14 01:48:04;;;;;;;135.20;40.20;;;8.00;99.90;;;;;;5068080;28;20079;-73
2021/11/14 01:50:32;;;;;;;128.35;41.45;;;8.00;99.90;;;;;;5049695;28;20084;-73
2021/11/14 01:52:59;;;;;;;122.15;39.80;;;8.00;99.90;;;;;;5061831;28;20055;-73
2021/11/14 01:55:28;;;;;;;120.88;38.08;;;7.90;99.90;;;;;;5048385;28;20099;-73
2021/11/14 01:57:56;;;;;;;121.15;38.50;;;8.00;99.90;;;;;;5048165;28;20045;-73
2021/11/14 02:00:29;;;;;;;119.85;40.10;;;8.00;99.90;;;;;;5061244;28;20048;-73
2021/11/14 02:02:56;;;;;;;133.15;40.03;;;8.00;99.90;;;;;;5067390;28;20052;-73
2021/11/14 02:05:26;;;;;;;123.57;38.90;;;8.00;99.90;;;;;;5067957;28;20123;-73
2021/11/14 02:07:54;;;;;;;126.75;38.85;;;8.00;99.90;;;;;;5050195;28;20056;-73
2021/11/14 02:10:23;;;;;;;122.03;40.50;;;8.00;99.90;;;;;;5056623;28;20106;-73
2021/11/14 02:12:51;;;;;;;120.97;40.15;;;8.00;99.90;;;;;;5050912;28;20164;-73
2021/11/14 02:15:18;;;;;;;123.68;39.25;;;8.00;99.90;;;;;;5067871;28;20055;-73
2021/11/14 02:17:45;;;;;;;115.95;37.70;;;8.00;99.90;;;;;;5050046;28;20147;-73
2021/11/14 02:20:13;;;;;;;133.75;40.83;;;8.00;99.90;;;;;;5049073;28;20163;-73
2021/11/14 02:22:40;;;;;;;112.85;37.08;;;8.00;99.90;;;;;;5062543;28;20052;-73
2021/11/14 02:25:09;;;;;;;120.32;37.95;;;8.00;99.90;;;;;;5067822;28;20139;-73
2021/11/14 02:27:36;;;;;;;127.78;39.97;;;8.00;99.90;;;;;;5067401;28;20838;-74
2021/11/14 02:30:06;;;;;;;109.82;37.75;;;8.00;99.90;;;;;;5059272;28;20434;-74
2021/11/14 02:32:33;;;;;;;131.60;38.33;;;8.00;99.90;;;;;;5063297;28;20080;-74
2021/11/14 02:35:21;;;;;;;119.05;38.65;;;8.00;99.90;;;;;;5047767;28;20091;-74
2021/11/14 02:37:48;;;;;;;119.78;39.08;;;8.00;99.90;;;;;;5047730;28;20080;-74
2021/11/14 02:40:16;;;;;;;132.77;40.65;;;8.00;99.90;;;;;;5047865;28;20051;-74
2021/11/14 02:42:46;;;;;;;118.88;37.35;;;8.00;99.90;;;;;;5049835;28;20094;-74
2021/11/14 02:45:17;;;;;;;134.35;40.53;;;8.10;99.90;;;;;;5067241;28;20143;-74
2021/11/14 02:47:45;;;;;;;118.85;38.53;;;8.10;99.90;;;;;;5064750;28;20536;-74
2021/11/14 02:50:12;;;;;;;132.30;41.20;;;8.00;99.90;;;;;;5057582;28;20086;-74
2021/11/14 02:52:39;;;;;;;123.25;38.85;;;8.00;99.90;;;;;;5065673;28;20144;-74
2021/11/14 02:55:09;;;;;;;114.57;35.15;;;8.10;99.90;;;;;;5029094;28;20156;-74
2021/11/14 02:57:36;;;;;;;123.78;39.67;;;8.10;99.90;;;;;;5046831;28;20131;-74
2021/11/14 03:00:10;;;;;;;131.55;39.80;;;8.10;99.90;;;;;;5029185;28;20073;-74
2021/11/14 03:02:36;;;;;;;116.13;38.03;;;8.10;99.90;;;;;;5063545;28;20127;-74
2021/11/14 03:05:15;;;;;;;125.50;38.67;;;8.00;99.90;;;;;;5056380;28;20109;-74
2021/11/14 03:07:44;;;;;;;126.70;38.22;;;8.00;99.90;;;;;;5046973;28;20136;-74
2021/11/14 03:10:16;;;;;;;131.95;38.53;;;8.00;99.90;;;;;;5047193;28;20084;-74
2021/11/14 03:13:03;;;;;;;122.35;40.47;;;8.00;99.90;;;;;;5048480;28;20132;-74
2021/11/14 03:15:32;;;;;;;120.55;38.75;;;8.00;99.90;;;;;;5066847;28;20136;-74
2021/11/14 03:18:00;;;;;;;127.63;38.78;;;8.00;99.90;;;;;;5066875;28;20047;-74
2021/11/14 03:20:27;;;;;;;133.25;40.78;;;8.00;99.90;;;;;;5048325;28;20124;-74
2021/11/14 03:22:54;;;;;;;122.47;39.75;;;8.00;99.90;;;;;;5066295;28;20617;-74
2021/11/14 03:25:24;;;;;;;118.18;39.90;;;8.00;99.90;;;;;;5055708;28;20130;-74
2021/11/14 03:27:52;;;;;;;135.13;42.22;;;8.00;99.90;;;;;;5047000;28;20099;-74
2021/11/14 03:30:20;;;;;;;126.32;39.53;;;8.00;99.90;;;;;;5057004;28;20452;-74
2021/11/14 03:32:48;;;;;;;133.35;41.85;;;8.00;99.90;;;;;;5066376;28;20084;-74
2021/11/14 03:35:16;;;;;;;124.22;41.88;;;8.00;99.90;;;;;;5065658;28;20079;-74
2021/11/14 03:37:43;;;;;;;136.65;42.30;;;8.00;99.90;;;;;;5046306;28;20157;-74
2021/11/14 03:40:12;;;;;;;139.25;42.65;;;8.00;99.90;;;;;;5055831;28;20055;-74
2021/11/14 03:42:39;;;;;;;135.07;42.65;;;7.90;99.90;;;;;;5065682;28;20088;-74
2021/11/14 03:45:07;;;;;;;129.02;41.67;;;7.90;99.90;;;;;;5054869;28;20744;-74
2021/11/14 03:47:35;;;;;;;139.38;43.30;;;7.90;99.90;;;;;;5065845;28;20056;-74
2021/11/14 03:50:03;;;;;;;150.85;44.72;;;7.90;99.90;;;;;;5064945;28;20457;-74
2021/11/14 03:52:29;;;;;;;139.77;41.58;;;7.90;99.90;;;;;;5066083;28;20086;-74
2021/11/14 03:54:56;;;;;;;138.90;42.45;;;7.90;99.90;;;;;;5064833;28;20135;-74
2021/11/14 03:57:24;;;;;;;141.73;45.53;;;7.90;99.90;;;;;;5066172;28;20629;-74
2021/11/14 03:59:51;;;;;;;132.50;42.83;;;7.90;99.90;;;;;;5065885;28;20128;-74
2021/11/14 04:02:18;;;;;;;122.35;40.38;;;7.90;99.90;;;;;;5065372;28;20476;-74
2021/11/14 04:04:45;;;;;;;135.23;42.97;;;7.90;99.90;;;;;;5063669;28;20037;-73
2021/11/14 04:07:12;;;;;;;132.13;42.10;;;7.90;99.90;;;;;;5065562;28;20421;-74
2021/11/14 04:09:39;;;;;;;130.50;42.25;;;7.90;99.90;;;;;;5058071;28;20055;-74
2021/11/14 04:12:06;;;;;;;132.13;42.20;;;7.90;99.90;;;;;;5045862;28;20120;-74
2021/11/14 04:14:33;;;;;;;125.63;40.92;;;7.90;99.90;;;;;;5055304;28;20516;-74
2021/11/14 04:16:59;;;;;;;134.57;43.05;;;7.90;99.90;;;;;;5060971;28;20128;-74
2021/11/14 04:19:26;;;;;;;129.82;42.20;;;7.90;99.90;;;;;;5065375;28;20044;-74
2021/11/14 04:21:56;;;;;;;138.27;41.80;;;7.90;99.90;;;;;;5066181;28;20052;-73
2021/11/14 04:24:23;;;;;;;131.15;41.17;;;7.90;99.90;;;;;;5053205;28;20132;-74
2021/11/14 04:26:50;;;;;;;125.63;41.67;;;7.90;99.90;;;;;;5045830;28;20139;-74
2021/11/14 04:29:16;;;;;;;130.65;41.83;;;7.90;99.90;;;;;;5047539;28;20163;-74
2021/11/14 04:31:43;;;;;;;131.73;41.03;;;7.90;99.90;;;;;;5065748;28;20159;-74
2021/11/14 04:34:10;;;;;;;130.65;41.58;;;7.90;99.90;;;;;;5063875;28;20168;-73
2021/11/14 04:36:37;;;;;;;145.02;42.50;;;7.90;99.90;;;;;;5047462;28;20139;-74
2021/11/14 04:39:04;;;;;;;133.52;43.53;;;7.90;99.90;;;;;;5046345;28;20185;-74
2021/11/14 04:41:31;;;;;;;123.78;41.53;;;7.90;99.90;;;;;;5063803;28;20114;-73
2021/11/14 04:43:58;;;;;;;136.90;42.45;;;7.90;99.90;;;;;;5065666;28;20132;-73
2021/11/14 04:46:25;;;;;;;133.50;43.15;;;7.90;99.90;;;;;;5061917;28;20870;-73
2021/11/14 04:48:52;;;;;;;136.98;43.67;;;8.00;99.90;;;;;;5065680;28;20080;-74
2021/11/14 04:51:19;;;;;;;122.97;42.08;;;8.00;99.90;;;;;;5046710;28;20183;-74
2021/11/14 04:53:46;;;;;;;137.20;43.83;;;8.00;99.90;;;;;;5065964;28;20083;-73
2021/11/14 04:56:12;;;;;;;132.88;39.92;;;8.00;99.90;;;;;;5065945;28;20123;-73
2021/11/14 04:58:39;;;;;;;128.77;41.00;;;8.00;99.90;;;;;;5065243;28;20048;-74
2021/11/14 05:01:06;;;;;;;115.20;39.97;;;8.00;99.90;;;;;;5058629;28;20045;-74
2021/11/14 05:03:34;;;;;;;114.55;38.65;;;7.90;99.90;;;;;;5065622;28;20051;-74
2021/11/14 05:06:00;;;;;;;118.38;39.80;;;8.00;99.90;;;;;;5065052;28;20087;-74
2021/11/14 05:08:27;;;;;;;118.45;40.88;;;7.90;99.90;;;;;;5065794;28;20135;-74
2021/11/14 05:10:54;;;;;;;112.15;41.95;;;7.90;99.90;;;;;;5031858;28;20048;-74
2021/11/14 05:13:21;;;;;;;118.30;40.05;;;8.00;99.90;;;;;;5027603;28;20052;-73
2021/11/14 05:15:48;;;;;;;122.13;40.13;;;7.90;99.90;;;;;;5059848;28;20084;-74
2021/11/14 05:18:15;;;;;;;115.70;39.22;;;7.90;99.90;;;;;;5063599;28;20106;-74
2021/11/14 05:20:41;;;;;;;120.53;40.58;;;7.90;99.90;;;;;;5064367;28;20140;-73
2021/11/14 05:23:13;;;;;;;114.63;38.42;;;8.00;99.90;;;;;;5051508;28;20092;-74
2021/11/14 05:25:40;;;;;;;116.70;40.95;;;8.00;99.90;;;;;;5045367;28;20119;-73
2021/11/14 05:28:07;;;;;;;105.13;37.85;;;8.00;99.90;;;;;;5058387;28;20589;-73
2021/11/14 05:30:34;;;;;;;119.45;39.42;;;8.00;99.90;;;;;;5035699;28;20091;-74
2021/11/14 05:33:01;;;;;;;114.70;38.60;;;8.00;99.90;;;;;;5065685;28;20048;-74
2021/11/14 05:35:28;;;;;;;122.72;41.20;;;8.00;99.90;;;;;;5055211;28;20135;-74
2021/11/14 05:37:55;;;;;;;110.10;38.25;;;7.90;99.90;;;;;;5030802;28;20139;-73
2021/11/14 05:40:22;;;;;;;112.57;38.78;;;7.90;99.90;;;;;;5049037;28;20081;-73
2021/11/14 05:42:49;;;;;;;122.18;39.05;;;7.90;99.90;;;;;;5048950;28;20106;-73
2021/11/14 05:45:16;;;;;;;123.43;38.28;;;7.90;99.90;;;;;;5059371;28;20751;-74
2021/11/14 05:47:42;;;;;;;114.60;38.15;;;7.90;99.90;;;;;;5068249;28;20083;-74
2021/11/14 05:50:10;;;;;;;119.60;39.53;;;7.90;99.90;;;;;;5067400;28;20056;-73
2021/11/14 05:52:37;;;;;;;113.15;36.85;;;8.00;99.90;;;;;;5068420;28;20084;-74
2021/11/14 05:55:05;;;;;;;112.43;38.95;;;8.00;99.90;;;;;;5050300;28;20127;-74
2021/11/14 05:57:43;;;;;;;106.50;36.38;;;7.90;99.90;;;;;;5068131;28;20059;-73
2021/11/14 06:00:19;;;;;;;111.20;37.05;;;8.00;99.90;;;;;;5057723;28;20061;-73
2021/11/14 06:02:54;;;;;;;118.32;37.42;;;7.90;99.90;;;;;;5066419;28;20834;-74
2021/11/14 06:05:21;;;;;;;116.78;38.70;;;7.90;99.90;;;;;;5048848;28;20056;-74
2021/11/14 06:07:48;;;;;;;106.22;37.95;;;7.90;99.90;;;;;;5059230;28;20080;-73
2021/11/14 06:10:16;;;;;;;103.75;37.45;;;7.90;99.90;;;;;;5058214;28;20053;-74
2021/11/14 06:12:45;;;;;;;106.13;36.28;;;7.90;99.90;;;;;;5030787;28;20107;-74
2021/11/14 06:15:15;;;;;;;122.10;40.53;;;7.90;99.90;;;;;;5066899;28;20079;-74
2021/11/14 06:17:42;;;;;;;106.28;38.17;;;7.90;99.90;;;;;;5068538;28;20157;-74
2021/11/14 06:20:09;;;;;;;111.07;38.97;;;7.90;99.90;;;;;;5068346;28;20102;-74
2021/11/14 06:22:36;;;;;;;107.70;37.17;;;7.90;99.90;;;;;;5049641;28;20123;-73
2021/11/14 06:25:03;;;;;;;108.03;39.55;;;7.90;99.90;;;;;;5059597;28;20053;-74
2021/11/14 06:27:32;;;;;;;109.75;38.05;;;8.00;99.90;;;;;;5040058;28;20055;-74
2021/11/14 06:29:59;;;;;;;109.85;37.75;;;8.00;99.90;;;;;;5048051;28;20135;-74
2021/11/14 06:32:26;;;;;;;112.80;37.63;;;8.00;99.90;;;;;;5066701;28;20136;-83
2021/11/14 06:34:53;;;;;;;105.28;39.25;;;8.00;99.90;;;;;;5074401;28;20112;-83
2021/11/14 06:37:20;;;;;;;110.03;38.65;;;8.00;99.90;;;;;;5073974;28;20480;-83
2021/11/14 06:39:47;;;;;;;107.47;37.92;;;8.00;99.90;;;;;;5074180;28;20136;-82
2021/11/14 06:42:13;;;;;;;110.43;37.58;;;8.00;99.90;;;;;;5054288;28;20087;-83
2021/11/14 06:44:40;;;;;;;119.75;40.53;;;8.00;99.90;;;;;;5062337;28;20131;-83
2021/11/14 06:47:08;;;;;;;116.32;41.45;;;8.00;99.90;;;;;;5069496;28;20048;-83
2021/11/14 06:49:34;;;;;;;111.53;38.85;;;8.00;99.90;;;;;;5073274;28;20564;-82
2021/11/14 06:52:01;;;;;;;118.82;37.45;;;8.00;99.90;;;;;;5073681;28;20083;-83
2021/11/14 06:54:28;;;;;;;105.68;36.30;;;8.00;99.90;;;;;;5074111;28;20080;-83
2021/11/14 06:56:57;;;;;;;112.53;42.35;;;8.00;99.90;;;;;;5057164;28;20055;-82
2021/11/14 06:59:25;;;;;;;113.22;38.13;;;8.00;99.90;;;;;;5056726;28;20045;-82
2021/11/14 07:02:09;;;;;;;104.55;37.75;;;8.00;99.90;;;;;;5073695;28;20036;-82
2021/11/14 07:04:37;;;;;;;106.53;38.58;;;8.10;99.90;;;;;;5068077;28;20044;-82
2021/11/14 07:07:04;;;;;;;118.88;39.30;;;8.10;99.90;;;;;;5073851;28;20072;-82
2021/11/14 07:09:32;;;;;;;102.15;37.25;;;8.00;99.90;;;;;;5073618;28;20052;-82
2021/11/14 07:11:58;;;;;;;108.25;37.50;;;8.10;99.90;;;;;;5073299;28;20083;-83
2021/11/14 07:14:27;;;;;;;114.72;40.92;;;8.10;99.90;;;;;;5073736;28;20076;-82
2021/11/14 07:16:54;;;;;;;113.22;39.13;;;8.10;99.90;;;;;;5073783;28;20095;-83
2021/11/14 07:19:22;;;;;;;107.90;37.72;;;8.20;99.90;;;;;;5064986;28;20041;-83
2021/11/14 07:21:49;;;;;;;109.53;39.42;;;8.20;99.90;;;;;;5073172;28;20131;-82
2021/11/14 07:24:16;;;;;;;118.22;39.35;;;8.20;99.90;;;;;;5052901;28;20458;-82
2021/11/14 07:26:44;;;;;;;109.65;38.30;;;8.30;99.90;;;;;;5052896;28;20094;-82
2021/11/14 07:29:10;;;;;;;116.45;38.78;;;8.30;99.90;;;;;;5053174;28;20166;-82
2021/11/14 07:31:37;;;;;;;118.38;38.65;;;8.30;99.90;;;;;;5043917;28;20084;-83
2021/11/14 07:34:04;;;;;;;152.27;41.05;;;8.40;99.90;;;;;;5072548;28;20532;-83
2021/11/14 07:36:31;;;;;;;114.78;38.67;;;8.40;99.90;;;;;;5072828;28;20088;-83
2021/11/14 07:38:58;;;;;;;118.75;38.63;;;8.50;99.90;;;;;;5046703;28;20144;-83
2021/11/14 07:41:25;;;;;;;122.53;39.53;;;8.50;99.90;;;;;;5067733;28;20044;-82
2021/11/14 07:43:52;;;;;;;119.50;41.08;;;8.60;99.90;;;;;;5054978;28;20076;-83
2021/11/14 07:46:18;;;;;;;114.85;40.47;;;8.60;99.90;;;;;;5072621;28;20561;-82
2021/11/14 07:48:45;;;;;;;125.35;40.58;;;8.60;99.90;;;;;;5055180;28;20087;-83
2021/11/14 07:51:12;;;;;;;121.18;40.15;;;8.60;99.90;;;;;;5072284;28;20478;-83
2021/11/14 07:53:39;;;;;;;119.47;41.50;;;8.70;99.90;;;;;;5072284;28;20127;-83
2021/11/14 07:56:06;;;;;;;119.07;38.38;;;8.70;99.90;;;;;;5054773;28;20092;-83
2021/11/14 07:58:33;;;;;;;115.35;40.28;;;8.70;99.90;;;;;;5051181;28;20502;-83
2021/11/14 08:01:00;;;;;;;120.32;39.50;;;8.70;99.90;;;;;;5038019;28;20087;-83
2021/11/14 08:03:31;;;;;;;124.72;40.90;;;8.60;99.90;;;;;;5072362;28;20041;-83
2021/11/14 08:06:21;;;;;;;124.03;42.95;;;8.70;99.90;;;;;;5072096;28;20044;-82
2021/11/14 08:08:48;;;;;;;114.93;38.60;;;8.70;99.90;;;;;;5072424;28;20095;-82
2021/11/14 08:11:15;;;;;;;111.28;39.13;;;8.70;99.90;;;;;;5072187;28;20713;-82
2021/11/14 08:13:42;;;;;;;112.47;38.47;;;8.70;99.90;;;;;;5071335;28;20123;-82
2021/11/14 08:16:09;;;;;;;117.93;39.63;;;8.70;99.90;;;;;;5051593;28;20140;-83
2021/11/14 08:18:36;;;;;;;120.55;40.30;;;8.70;99.90;;;;;;5065334;28;20127;-83
2021/11/14 08:21:03;;;;;;;107.43;37.53;;;8.70;99.90;;;;;;5070619;28;20036;-82
2021/11/14 08:23:29;;;;;;;110.97;37.90;;;8.70;99.90;;;;;;5071983;28;20072;-83
2021/11/14 08:25:56;;;;;;;114.90;37.85;;;8.80;99.90;;;;;;5071898;28;20091;-82
2021/11/14 08:28:23;;;;;;;109.78;37.90;;;8.80;99.90;;;;;;5057271;28;20110;-82
2021/11/14 08:30:50;;;;;;;115.90;39.65;;;8.80;99.90;;;;;;5054237;28;20052;-82
2021/11/14 08:33:35;;;;;;;109.40;37.07;;;8.80;99.90;;;;;;5067588;28;20040;-82
2021/11/14 08:36:02;;;;;;;107.07;37.38;;;8.80;99.90;;;;;;5071946;28;20088;-83
2021/11/14 08:38:29;;;;;;;117.20;35.83;;;8.90;99.90;;;;;;5071585;28;20436;-82
2021/11/14 08:40:56;;;;;;;110.68;38.53;;;8.90;99.90;;;;;;5054205;28;20658;-82
2021/11/14 08:43:23;;;;;;;125.18;39.47;;;8.90;99.90;;;;;;5072057;28;20083;-83
2021/11/14 08:45:50;;;;;;;101.40;38.05;;;9.00;99.90;;;;;;5071400;28;20045;-82
2021/11/14 08:48:22;;;;;;;140.57;39.35;;;9.00;99.90;;;;;;5067971;28;20102;-82
2021/11/14 08:50:49;;;;;;;117.80;39.50;;;9.10;99.90;;;;;;5067528;28;20080;-83
2021/11/14 08:53:16;;;;;;;116.22;39.35;;;9.10;99.90;;;;;;5071828;28;20088;-82
2021/11/14 08:55:43;;;;;;;118.22;38.45;;;9.10;99.90;;;;;;5056761;28;20146;-83
2021/11/14 08:58:29;;;;;;;118.72;38.92;;;9.00;99.90;;;;;;5051040;28;20060;-82
2021/11/14 09:00:56;;;;;;;117.68;40.95;;;9.10;99.90;;;;;;5067794;28;20048;-82
2021/11/14 09:03:23;;;;;;;117.18;38.05;;;9.10;99.90;;;;;;5053341;28;20080;-82
2021/11/14 09:05:50;;;;;;;109.38;39.28;;;9.10;99.90;;;;;;5071777;28;20091;-82
2021/11/14 09:08:17;;;;;;;117.70;41.85;;;9.10;99.90;;;;;;5071732;28;20087;-82
2021/11/14 09:10:45;;;;;;;111.53;37.35;;;9.10;99.90;;;;;;5074318;28;20551;-82
2021/11/14 09:13:15;;;;;;;119.65;37.70;;;9.10;99.90;;;;;;5075431;28;20445;-82
2021/11/14 09:15:43;;;;;;;114.35;37.80;;;9.20;99.90;;;;;;5075530;28;20059;-82
2021/11/14 09:18:15;;;;;;;114.97;37.55;;;9.20;99.90;;;;;;5074965;28;20053;-82
2021/11/14 09:20:43;;;;;;;103.35;36.13;;;9.20;99.90;;;;;;5074746;28;20117;-82
2021/11/14 09:23:09;;;;;;;110.50;37.70;;;9.20;99.90;;;;;;5074595;28;20760;-82
2021/11/14 09:25:40;;;;;;;115.18;37.65;;;9.20;99.90;;;;;;5074950;28;20103;-82
2021/11/14 09:28:12;;;;;;;105.32;36.63;;;9.20;99.90;;;;;;5075213;28;20076;-83
2021/11/14 09:30:42;;;;;;;113.10;37.20;;;9.20;99.90;;;;;;5069307;28;20094;-83
2021/11/14 09:33:10;;;;;;;107.97;37.03;;;9.20;99.90;;;;;;5057072;28;20406;-83
2021/11/14 09:35:37;;;;;;;115.30;36.30;;;9.20;99.90;;;;;;5074917;28;20075;-83
2021/11/14 09:38:04;;;;;;;109.43;37.92;;;9.20;99.90;;;;;;5061301;28;20789;-83
2021/11/14 09:40:31;;;;;;;113.40;36.55;;;9.20;99.90;;;;;;5054657;28;20473;-83
2021/11/14 09:42:58;;;;;;;112.57;37.05;;;9.20;99.90;;;;;;5054792;28;20128;-82
2021/11/14 09:45:29;;;;;;;105.20;36.78;;;9.30;99.90;;;;;;5064679;28;20457;-83
2021/11/14 09:47:57;;;;;;;112.65;36.13;;;9.30;99.90;;;;;;5057050;28;20076;-82
2021/11/14 09:50:26;;;;;;;110.72;36.90;;;9.30;99.90;;;;;;5074168;28;20098;-82
2021/11/14 09:52:56;;;;;;;115.55;37.17;;;9.30;99.90;;;;;;5074283;28;20448;-82
2021/11/14 09:55:24;;;;;;;109.13;35.88;;;9.40;99.90;;;;;;5074265;28;20094;-84
2021/11/14 09:57:53;;;;;;;108.90;37.85;;;9.40;99.90;;;;;;5074232;28;20676;-82
2021/11/14 10:00:25;;;;;;;124.05;38.70;;;9.40;99.90;;;;;;5074019;28;20474;-83
2021/11/14 10:02:52;;;;;;;114.32;38.88;;;9.40;99.90;;;;;;5074033;28;20076;-82
2021/11/14 10:05:19;;;;;;;111.25;37.28;;;9.40;99.90;;;;;;5074338;28;20079;-82
2021/11/14 10:07:58;;;;;;;122.25;38.33;;;9.40;99.90;;;;;;5056209;28;20091;-82
2021/11/14 10:10:28;;;;;;;125.68;38.78;;;9.50;99.90;;;;;;5062216;28;20053;-82
2021/11/14 10:13:19;;;;;;;120.22;35.40;;;9.50;99.90;;;;;;5038302;28;20057;-82
2021/11/14 10:15:49;;;;;;;126.68;41.55;;;9.50;99.90;;;;;;5036295;28;20053;-83
2021/11/14 10:18:21;;;;;;;129.98;39.30;;;9.50;99.90;;;;;;5071210;28;20049;-82
2021/11/14 10:20:54;;;;;;;114.72;38.67;;;9.50;99.90;;;;;;5072977;28;20075;-82
2021/11/14 10:23:21;;;;;;;123.30;37.35;;;9.50;99.90;;;;;;5073823;28;20079;-82
2021/11/14 10:25:49;;;;;;;112.85;36.53;;;9.50;99.90;;;;;;5073266;28;20097;-83
2021/11/14 10:28:16;;;;;;;121.32;38.33;;;9.50;99.90;;;;;;5073440;28;20144;-82
2021/11/14 10:30:48;;;;;;;116.45;39.72;;;9.50;99.90;;;;;;5073176;28;20801;-82
2021/11/14 10:33:17;;;;;;;125.05;41.08;;;9.50;99.90;;;;;;5073121;28;20048;-82
2021/11/14 10:35:46;;;;;;;126.55;41.33;;;9.50;99.90;;;;;;5073655;28;20494;-83
2021/11/14 10:38:16;;;;;;;124.93;40.53;;;9.60;99.90;;;;;;5065694;28;20099;-83
2021/11/14 10:40:50;;;;;;;145.48;49.30;;;9.50;99.90;;;;;;5053829;28;20124;-83
2021/11/14 10:43:23;;;;;;;126.78;42.47;;;9.60;99.90;;;;;;5053776;28;20690;-83
2021/11/14 10:45:52;;;;;;;154.57;52.35;;;9.60;99.90;;;;;;5068540;28;20471;-83
2021/11/14 10:48:22;;;;;;;141.90;50.17;;;9.50;99.90;;;;;;5073368;28;20816;-82
2021/11/14 10:50:53;;;;;;;126.70;42.55;;;9.60;99.90;;;;;;5058259;28;20084;-83
2021/11/14 10:53:24;;;;;;;129.35;40.70;;;9.50;99.90;;;;;;5053539;28;20077;-83
2021/11/14 10:56:02;;;;;;;120.30;39.88;;;9.50;99.90;;;;;;5053929;28;20052;-83
2021/11/14 10:58:31;;;;;;;122.13;39.53;;;9.50;99.90;;;;;;5053074;28;20071;-83
2021/11/14 11:01:03;;;;;;;114.13;39.67;;;9.50;99.90;;;;;;5069328;28;20075;-83
2021/11/14 11:03:34;;;;;;;108.32;37.67;;;9.50;99.90;;;;;;5073003;28;20037;-83
2021/11/14 11:06:03;;;;;;;127.97;44.28;;;9.50;99.90;;;;;;5056341;28;20079;-83
2021/11/14 11:08:30;;;;;;;139.25;50.33;;;9.60;99.90;;;;;;5052751;28;20608;-83
2021/11/14 11:11:04;;;;;;;132.45;45.00;;;9.60;99.90;;;;;;5052874;28;20085;-83
2021/11/14 11:13:49;;;;;;;148.85;59.20;;;9.60;99.90;;;;;;5052970;28;20077;-82
2021/11/14 11:16:21;;;;;;;140.77;54.63;;;9.60;99.90;;;;;;5072280;28;20053;-83
2021/11/14 11:19:09;;;;;;;128.30;42.50;;;9.60;99.90;;;;;;5054765;28;20751;-83
2021/11/14 11:21:39;;;;;;;116.13;37.42;;;9.60;99.90;;;;;;5053333;28;20052;-83
2021/11/14 11:24:12;;;;;;;107.53;36.03;;;9.70;99.90;;;;;;5049539;28;20472;-83
2021/11/14 11:26:51;;;;;;;129.18;46.03;;;9.60;99.90;;;;;;5072668;28;20139;-83
2021/11/14 11:29:19;;;;;;;144.45;59.45;;;9.70;99.90;;;;;;5049437;28;20057;-74
2021/11/14 11:31:50;;;;;;;169.75;71.18;;;9.70;99.90;;;;;;5059411;28;20812;-74
2021/11/14 11:34:20;;;;;;;118.00;45.80;;;9.70;99.90;;;;;;5064824;28;20131;-74
2021/11/14 11:36:48;;;;;;;122.72;38.55;;;9.70;99.90;;;;;;5029249;28;20561;-74
2021/11/14 11:39:16;;;;;;;122.90;48.92;;;9.60;99.90;;;;;;5048602;28;20150;-74
2021/11/14 11:41:46;;;;;;;117.97;43.05;;;9.60;99.90;;;;;;5047568;28;20148;-74
2021/11/14 11:44:13;;;;;;;121.75;42.67;;;9.50;99.90;;;;;;5047336;28;20124;-74
2021/11/14 11:46:42;;;;;;;112.78;36.28;;;9.50;99.90;;;;;;5033563;28;20099;-74
2021/11/14 11:49:31;;;;;;;100.82;35.75;;;9.50;99.90;;;;;;5044199;28;20050;-74
2021/11/14 11:52:01;;;;;;;122.65;44.75;;;9.50;99.90;;;;;;5066881;28;20059;-74
2021/11/14 11:54:33;;;;;;;106.70;34.22;;;9.50;99.90;;;;;;5053937;28;20049;-74
2021/11/14 11:57:10;;;;;;;111.90;33.15;;;9.40;99.90;;;;;;5047153;28;20123;-74
2021/11/14 12:00:00;;;;;;;107.68;32.67;;;9.50;99.90;;;;;;5046435;28;20103;-74
2021/11/14 12:02:28;;;;;;;95.05;30.77;;;9.50;99.90;;;;;;5059870;28;20056;-74
2021/11/14 12:04:57;;;;;;;103.72;31.83;;;9.50;99.90;;;;;;5063220;28;20059;-74
2021/11/14 12:07:30;;;;;;;88.43;29.73;;;9.40;99.90;;;;;;5066091;28;20485;-74
2021/11/14 12:10:22;;;;;;;99.03;30.15;;;9.40;99.90;;;;;;5058726;28;20399;-74
2021/11/14 12:12:55;;;;;;;101.47;31.67;;;9.40;99.90;;;;;;5046726;28;20128;-74
2021/11/14 12:15:26;;;;;;;94.05;30.70;;;9.40;99.90;;;;;;5046662;28;20052;-74
2021/11/14 12:17:57;;;;;;;94.25;29.42;;;9.40;99.90;;;;;;5060905;28;20143;-74
2021/11/14 12:20:45;;;;;;;90.72;29.98;;;9.40;99.90;;;;;;5046170;28;20462;-74
2021/11/14 12:23:18;;;;;;;91.65;29.95;;;9.40;99.90;;;;;;5028795;28;20127;-74
2021/11/14 12:25:47;;;;;;;87.32;29.67;;;9.40;99.90;;;;;;5048501;28;20045;-74
2021/11/14 12:28:16;;;;;;;89.53;29.63;;;9.40;99.90;;;;;;5047659;28;20076;-74
2021/11/14 12:31:01;;;;;;;95.97;31.08;;;9.30;99.90;;;;;;5049525;28;20138;-74
2021/11/14 12:33:31;;;;;;;143.13;53.33;;;9.30;99.90;;;;;;5057753;28;20044;-74
2021/11/14 12:36:09;;;;;;;127.50;35.65;;;9.30;99.90;;;;;;5048175;28;20519;-74
2021/11/14 12:38:36;;;;;;;118.75;39.75;;;9.30;99.90;;;;;;5065490;28;20136;-74